Dauntless Aviation
Greetings, Guest! To participate, [sign up for a free account] or [log in]
Airports South America Uruguay

Hospital Policial

Montevideo, URUGUAY

Airport Info


Latitude / Longitude: 34°52'4"S / 56°9'6"W
  34°52.068'S / 56°9.114'W
  -34.8678 / -56.1519
Satellite photo at:
Airport distance calculator
Weather Reports


8.1nm NE
SUMU 091700Z 14017KT 9999 SCT012 BKN080 15/09 Q1024 NOSIG


7.8nm NW
SUAA 091120Z 0912/1012 14018KT 9999 FEW010 SCT020 BKN070 TX16/0918Z TN08/1010Z
8.1nm NE
SUMU 091120Z 0912/1012 14018KT 9999 FEW010 SCT020 BKN070 TX16/0918Z TN08/1010Z


Dauntless Aviation

© 2007-2015 Dauntless Aviation, all rights reserved
Information provided via PilotNav comes from a variety of official and unofficial data sources. As errors are possible, do not use PilotNav for primary flight planning purposes. Verify any information that you receive via PilotNav with current and canonical charts and other official documents. The material in this database is subject to database copyrights held by Dauntless Aviation and may not be copied without the express permission of Dauntless Aviation - licenses for use of part of all of this data are available for purchase; enquire via the Dauntless Aviation helpdesk. A number of mechanisms and markers exist in the database to protect against and identify infringement / copyright. Automated queries against this website are stictly prohibited, and all activity is logged and analyzed.